createdAt,value
2018-02-07T00:01:13.599Z,-2.10
2018-02-07T00:03:42.536Z,-2.10
2018-02-07T00:06:10.813Z,-2.10
2018-02-07T00:08:39.175Z,-2.10
2018-02-07T00:11:07.435Z,-2.20
2018-02-07T00:13:35.565Z,-2.10
2018-02-07T00:16:03.864Z,-2.10
2018-02-07T00:18:33.613Z,-2.20
2018-02-07T00:21:01.831Z,-2.20
2018-02-07T00:23:30.056Z,-2.20
2018-02-07T00:25:58.254Z,-2.20
2018-02-07T00:28:26.433Z,-2.20
2018-02-07T00:30:54.808Z,-2.30
2018-02-07T00:33:22.972Z,-2.30
2018-02-07T00:35:51.193Z,-2.30
2018-02-07T00:38:20.172Z,-2.30
2018-02-07T00:40:49.210Z,-2.40
2018-02-07T00:43:17.480Z,-2.40
2018-02-07T00:45:45.725Z,-2.40
2018-02-07T00:48:13.988Z,-2.40
2018-02-07T00:50:42.962Z,-2.40
2018-02-07T00:53:11.157Z,-2.40
2018-02-07T00:55:39.394Z,-2.40
2018-02-07T00:58:07.525Z,-2.40
2018-02-07T01:00:35.680Z,-2.50
2018-02-07T01:03:03.854Z,-2.50
2018-02-07T01:05:32.077Z,-2.50
2018-02-07T01:08:00.241Z,-2.50
2018-02-07T01:10:28.486Z,-2.50
2018-02-07T01:12:56.687Z,-2.60
2018-02-07T01:15:24.817Z,-2.60
2018-02-07T01:17:52.997Z,-2.60
2018-02-07T01:20:21.181Z,-2.60
2018-02-07T01:22:49.332Z,-2.60
2018-02-07T01:25:18.293Z,-2.60
2018-02-07T01:27:46.576Z,-2.60
2018-02-07T01:30:15.483Z,-2.60
2018-02-07T01:32:44.448Z,-2.50
2018-02-07T01:35:12.613Z,-2.50
2018-02-07T01:37:41.601Z,-2.60
2018-02-07T01:40:09.777Z,-2.60
2018-02-07T01:42:37.939Z,-2.60
2018-02-07T01:45:07.624Z,-2.70
2018-02-07T01:47:37.455Z,-2.70
2018-02-07T01:50:05.705Z,-2.70
2018-02-07T01:52:33.908Z,-2.70
2018-02-07T01:55:02.060Z,-2.70
2018-02-07T01:57:30.389Z,-2.70
2018-02-07T01:59:58.562Z,-2.70
2018-02-07T02:02:26.796Z,-2.70
2018-02-07T02:04:54.992Z,-2.70
2018-02-07T02:07:23.307Z,-2.70
2018-02-07T02:09:51.527Z,-2.70
2018-02-07T02:12:20.652Z,-2.70
2018-02-07T02:14:49.653Z,-2.70
2018-02-07T02:17:32.696Z,-2.70
2018-02-07T02:20:00.913Z,-2.70
2018-02-07T02:22:29.080Z,-2.60
2018-02-07T02:24:58.775Z,-2.70
2018-02-07T02:27:27.057Z,-2.70
2018-02-07T02:29:55.258Z,-2.70
2018-02-07T02:32:23.508Z,-2.70
2018-02-07T02:34:51.829Z,-2.70
2018-02-07T02:37:21.024Z,-2.80
2018-02-07T02:39:50.115Z,-2.70
2018-02-07T02:42:18.298Z,-2.80
2018-02-07T02:44:46.489Z,-2.80
2018-02-07T02:49:49.148Z,-2.80
2018-02-07T02:52:18.149Z,-2.80
2018-02-07T02:54:47.122Z,-2.80
2018-02-07T02:57:15.385Z,-2.80
2018-02-07T02:59:43.902Z,-2.80
2018-02-07T03:02:12.035Z,-2.80
2018-02-07T03:04:40.368Z,-2.80
2018-02-07T03:07:08.751Z,-2.90
2018-02-07T03:09:36.930Z,-2.90
2018-02-07T03:12:05.109Z,-2.90
2018-02-07T03:14:33.313Z,-2.90
2018-02-07T03:17:01.832Z,-2.90
2018-02-07T03:19:29.981Z,-3.00
2018-02-07T03:21:58.351Z,-3.00
2018-02-07T03:24:27.300Z,-3.00
2018-02-07T03:26:55.838Z,-3.00
2018-02-07T03:29:24.238Z,-3.10
2018-02-07T03:31:52.476Z,-3.10
2018-02-07T03:34:20.864Z,-3.00
2018-02-07T03:36:49.274Z,-3.00
2018-02-07T03:39:17.516Z,-3.00
2018-02-07T03:41:46.033Z,-3.00
2018-02-07T03:44:14.678Z,-3.10
2018-02-07T03:46:42.812Z,-3.10
2018-02-07T03:49:10.993Z,-3.10
2018-02-07T03:51:39.470Z,-3.10
2018-02-07T03:54:08.458Z,-3.30
2018-02-07T03:56:36.736Z,-3.30
2018-02-07T03:59:04.971Z,-3.20
2018-02-07T04:01:33.099Z,-3.30
2018-02-07T04:04:02.071Z,-3.30
2018-02-07T04:06:30.340Z,-3.30
2018-02-07T04:08:58.551Z,-3.30
2018-02-07T04:11:26.897Z,-3.40
2018-02-07T04:13:55.169Z,-3.50
2018-02-07T04:16:23.424Z,-3.50
2018-02-07T04:18:51.666Z,-3.40
2018-02-07T04:21:20.533Z,-3.30
2018-02-07T04:23:49.484Z,-3.30
2018-02-07T04:26:17.624Z,-3.30
2018-02-07T04:28:45.817Z,-3.30
2018-02-07T04:31:13.945Z,-3.50
2018-02-07T04:33:42.936Z,-3.60
2018-02-07T04:36:11.852Z,-3.60
2018-02-07T04:38:40.164Z,-3.60
2018-02-07T04:41:08.457Z,-3.60
2018-02-07T04:43:36.681Z,-3.60
2018-02-07T04:46:04.924Z,-3.60
2018-02-07T04:48:33.821Z,-3.70
2018-02-07T04:51:02.086Z,-3.70
2018-02-07T04:53:30.280Z,-3.70
2018-02-07T04:55:58.480Z,-3.70
2018-02-07T04:58:26.605Z,-3.60
2018-02-07T05:00:55.512Z,-3.50
2018-02-07T05:03:23.642Z,-3.50
2018-02-07T05:05:51.784Z,-3.40
2018-02-07T05:08:20.678Z,-3.50
2018-02-07T05:10:49.713Z,-3.50
2018-02-07T05:13:17.858Z,-3.50
2018-02-07T05:15:46.756Z,-3.50
2018-02-07T05:18:14.886Z,-3.50
2018-02-07T05:20:43.020Z,-3.50
2018-02-07T05:23:11.912Z,-3.50
2018-02-07T05:25:40.812Z,-3.50
2018-02-07T05:28:08.936Z,-3.50
2018-02-07T05:30:37.097Z,-3.50
2018-02-07T05:33:05.220Z,-3.50
2018-02-07T05:35:33.429Z,-3.50
2018-02-07T05:38:01.528Z,-3.50
2018-02-07T05:40:29.676Z,-3.60
2018-02-07T05:42:57.828Z,-3.60
2018-02-07T05:45:26.235Z,-3.50
2018-02-07T05:47:54.382Z,-3.60
2018-02-07T05:50:22.676Z,-3.60
2018-02-07T05:52:50.851Z,-3.60
2018-02-07T05:55:19.484Z,-3.60
2018-02-07T05:57:48.368Z,-3.60
2018-02-07T06:00:17.277Z,-3.60
2018-02-07T06:02:45.400Z,-3.60
2018-02-07T06:05:14.020Z,-3.50
2018-02-07T06:07:42.933Z,-3.50
2018-02-07T06:10:11.044Z,-3.50
2018-02-07T06:12:39.192Z,-3.50
2018-02-07T06:15:07.340Z,-3.40
2018-02-07T06:17:35.486Z,-3.40
2018-02-07T06:20:03.611Z,-3.40
2018-02-07T06:22:31.846Z,-3.50
2018-02-07T06:24:59.976Z,-3.50
2018-02-07T06:27:28.168Z,-3.40
2018-02-07T06:29:57.785Z,-3.50
2018-02-07T06:32:25.944Z,-3.50
2018-02-07T06:34:54.829Z,-3.60
2018-02-07T06:37:22.965Z,-3.60
2018-02-07T06:39:51.090Z,-3.60
2018-02-07T06:42:19.232Z,-3.50
2018-02-07T06:44:47.356Z,-3.60
2018-02-07T06:47:15.537Z,-3.50
2018-02-07T06:49:43.763Z,-3.50
2018-02-07T06:52:11.902Z,-3.60
2018-02-07T06:54:40.077Z,-3.60
2018-02-07T06:57:08.229Z,-3.50
2018-02-07T06:59:36.349Z,-3.40
2018-02-07T07:02:05.271Z,-3.30
2018-02-07T07:04:33.400Z,-3.30
2018-02-07T07:07:01.556Z,-3.30
2018-02-07T07:09:29.706Z,-3.10
2018-02-07T07:11:59.057Z,-3.00
2018-02-07T07:14:27.228Z,-3.00
2018-02-07T07:16:56.164Z,-3.30
2018-02-07T07:19:24.330Z,-3.40
2018-02-07T07:21:52.468Z,-3.30
2018-02-07T07:24:21.393Z,-3.00
2018-02-07T07:26:49.654Z,-3.00
2018-02-07T07:29:17.806Z,-2.60
2018-02-07T07:31:46.745Z,-2.20
2018-02-07T07:34:15.240Z,-2.20
2018-02-07T07:36:43.361Z,-2.40
2018-02-07T07:39:11.508Z,-2.60
2018-02-07T07:41:40.784Z,-2.00
2018-02-07T07:44:08.964Z,-2.10
2018-02-07T07:46:37.103Z,-1.90
2018-02-07T07:49:05.250Z,-1.70
2018-02-07T07:51:33.400Z,-1.60
2018-02-07T07:54:02.317Z,-1.50
2018-02-07T07:56:30.480Z,-1.50
2018-02-07T07:58:58.610Z,-1.40
2018-02-07T08:01:26.749Z,-1.40
2018-02-07T08:03:54.872Z,-1.10
2018-02-07T08:06:23.052Z,-0.90
2018-02-07T08:08:51.944Z,-0.70
2018-02-07T08:11:20.869Z,-0.60
2018-02-07T08:13:49.031Z,-0.60
2018-02-07T08:16:17.180Z,-0.60
2018-02-07T08:18:45.318Z,-0.40
2018-02-07T08:21:13.478Z,-0.40
2018-02-07T08:23:41.612Z,-0.40
2018-02-07T08:26:09.816Z,-0.50
2018-02-07T08:28:37.950Z,-0.60
2018-02-07T08:31:06.088Z,-0.50
2018-02-07T08:33:34.252Z,-0.50
2018-02-07T08:36:02.418Z,-0.50
2018-02-07T08:38:30.553Z,-0.40
2018-02-07T08:40:58.882Z,-0.20
2018-02-07T08:43:27.792Z,0.00
2018-02-07T08:45:55.911Z,-0.10
2018-02-07T08:48:24.107Z,0.20
2018-02-07T08:50:52.230Z,0.40
2018-02-07T08:53:20.388Z,0.40
2018-02-07T08:55:49.435Z,0.50
2018-02-07T08:58:17.629Z,-0.20
2018-02-07T09:00:45.730Z,-0.30
2018-02-07T09:03:13.885Z,-0.30
2018-02-07T09:05:42.012Z,-0.40
2018-02-07T09:08:10.163Z,-0.60
2018-02-07T09:10:38.338Z,-1.00
2018-02-07T09:13:06.494Z,-1.20
2018-02-07T09:15:34.616Z,-1.20
2018-02-07T09:18:02.769Z,-1.20
2018-02-07T09:20:31.675Z,-1.40
2018-02-07T09:22:59.817Z,-1.50
2018-02-07T09:25:27.951Z,-1.40
2018-02-07T09:27:56.121Z,-1.30
2018-02-07T09:30:24.272Z,-1.30
2018-02-07T09:32:52.392Z,-1.20
2018-02-07T09:35:20.524Z,-1.30
2018-02-07T09:37:49.420Z,-1.30
2018-02-07T09:40:17.565Z,-1.40
2018-02-07T09:42:45.684Z,-1.40
2018-02-07T09:45:13.824Z,-1.60
2018-02-07T09:47:41.976Z,-1.70
2018-02-07T09:50:10.127Z,-1.60
2018-02-07T09:52:38.266Z,-1.30
2018-02-07T09:55:06.412Z,-1.50
2018-02-07T09:57:34.606Z,-1.40
2018-02-07T10:00:02.778Z,-1.40
2018-02-07T10:02:30.913Z,-1.30
2018-02-07T10:04:59.064Z,-1.20
2018-02-07T10:07:27.185Z,-1.10
2018-02-07T10:09:55.315Z,-1.10
2018-02-07T10:12:23.486Z,-1.00
2018-02-07T10:14:51.730Z,-0.90
2018-02-07T10:17:19.870Z,-1.00
2018-02-07T10:19:48.012Z,-0.80
2018-02-07T10:22:16.185Z,-0.50
2018-02-07T10:24:44.292Z,-0.40
2018-02-07T10:27:12.453Z,-0.40
2018-02-07T10:29:40.659Z,-0.30
2018-02-07T10:32:08.789Z,-0.50
2018-02-07T10:34:37.700Z,-0.20
2018-02-07T10:37:05.851Z,-0.20
2018-02-07T10:39:34.053Z,-0.10
2018-02-07T10:42:02.932Z,-0.10
2018-02-07T10:44:31.061Z,-0.10
2018-02-07T10:46:59.224Z,0.00
2018-02-07T10:49:27.376Z,0.00
2018-02-07T10:51:55.482Z,0.10
2018-02-07T10:54:23.638Z,0.00
2018-02-07T10:56:51.778Z,-0.10
2018-02-07T10:59:19.924Z,0.00
2018-02-07T11:01:48.085Z,-0.30
2018-02-07T11:04:16.252Z,-0.10
2018-02-07T11:06:45.165Z,0.30
2018-02-07T11:09:13.347Z,0.30
2018-02-07T11:11:41.496Z,0.10
2018-02-07T11:14:09.652Z,0.10
2018-02-07T11:16:38.573Z,0.70
2018-02-07T11:19:06.712Z,0.70
2018-02-07T11:21:35.600Z,0.90
2018-02-07T11:24:04.544Z,1.10
2018-02-07T11:26:32.674Z,1.00
2018-02-07T11:29:00.844Z,0.90
2018-02-07T11:31:28.977Z,1.00
2018-02-07T11:33:57.192Z,1.00
2018-02-07T11:36:25.313Z,1.10
2018-02-07T11:38:53.521Z,1.20
2018-02-07T11:41:22.396Z,1.00
2018-02-07T11:43:51.300Z,1.00
2018-02-07T11:46:19.428Z,1.00
2018-02-07T11:48:47.580Z,1.00
2018-02-07T11:51:15.729Z,1.00
2018-02-07T11:53:43.856Z,1.30
2018-02-07T11:56:12.079Z,1.40
2018-02-07T11:58:40.200Z,1.60
2018-02-07T12:01:09.136Z,2.00
2018-02-07T12:03:37.281Z,1.90
2018-02-07T12:06:05.408Z,1.50
2018-02-07T12:08:33.532Z,1.70
2018-02-07T12:11:02.575Z,2.10
2018-02-07T12:13:30.713Z,2.10
2018-02-07T12:15:58.867Z,2.10
2018-02-07T12:18:27.755Z,1.50
2018-02-07T12:20:56.685Z,1.60
2018-02-07T12:23:24.818Z,1.60
2018-02-07T12:25:53.712Z,2.10
2018-02-07T12:28:21.845Z,2.00
2018-02-07T12:30:49.966Z,1.90
2018-02-07T12:33:18.104Z,2.40
2018-02-07T12:35:47.004Z,2.70
2018-02-07T12:38:15.913Z,2.70
2018-02-07T12:40:44.035Z,2.70
2018-02-07T12:43:12.199Z,2.80
2018-02-07T12:45:40.398Z,2.70
2018-02-07T12:48:08.536Z,2.50
2018-02-07T12:50:36.760Z,2.50
2018-02-07T12:53:05.680Z,2.50
2018-02-07T12:55:33.847Z,2.40
2018-02-07T12:58:02.046Z,2.30
2018-02-07T13:00:30.347Z,2.30
2018-02-07T13:02:58.649Z,2.40
2018-02-07T13:05:27.572Z,2.30
2018-02-07T13:07:55.753Z,2.30
2018-02-07T13:10:23.905Z,2.20
2018-02-07T13:12:52.034Z,2.20
2018-02-07T13:15:20.198Z,2.00
2018-02-07T13:17:48.304Z,1.90
2018-02-07T13:20:16.457Z,1.90
2018-02-07T13:22:45.478Z,1.90
2018-02-07T13:25:14.432Z,1.80
2018-02-07T13:27:42.649Z,1.70
2018-02-07T13:30:10.901Z,1.70
2018-02-07T13:32:39.044Z,1.60
2018-02-07T13:35:07.194Z,1.60
2018-02-07T13:37:35.348Z,1.50
2018-02-07T13:40:03.518Z,1.60
2018-02-07T13:42:31.670Z,1.60
2018-02-07T13:44:59.880Z,1.60
2018-02-07T13:47:28.001Z,1.70
2018-02-07T13:49:56.149Z,1.70
2018-02-07T13:52:24.313Z,1.80
2018-02-07T13:54:52.508Z,1.90
2018-02-07T13:57:21.014Z,1.80
2018-02-07T13:59:49.133Z,1.70
2018-02-07T14:02:17.294Z,1.80
2018-02-07T14:04:45.454Z,1.70
2018-02-07T14:07:15.084Z,1.90
2018-02-07T14:09:43.236Z,1.90
2018-02-07T14:12:11.347Z,1.90
2018-02-07T14:14:39.618Z,1.80
2018-02-07T14:17:07.719Z,1.70
2018-02-07T14:19:35.853Z,1.70
2018-02-07T14:22:04.741Z,1.70
2018-02-07T14:24:32.916Z,1.60
2018-02-07T14:27:01.035Z,1.60
2018-02-07T14:29:29.166Z,1.60
2018-02-07T14:31:57.305Z,1.60
2018-02-07T14:34:25.430Z,1.60
2018-02-07T14:36:53.572Z,1.60
2018-02-07T14:39:21.707Z,1.60
2018-02-07T14:41:49.870Z,1.60
2018-02-07T14:44:18.009Z,1.60
2018-02-07T14:46:46.206Z,1.50
2018-02-07T14:49:15.224Z,1.40
2018-02-07T14:51:43.436Z,1.40
2018-02-07T14:54:11.529Z,1.40
2018-02-07T14:56:39.660Z,1.40
2018-02-07T14:59:08.544Z,1.30
2018-02-07T15:01:37.540Z,1.20
2018-02-07T15:04:05.668Z,1.20
2018-02-07T15:06:34.602Z,0.70
2018-02-07T15:09:03.480Z,0.40
2018-02-07T15:11:31.629Z,0.40
2018-02-07T15:13:59.753Z,0.60
2018-02-07T15:16:27.899Z,0.80
2018-02-07T15:18:56.033Z,0.50
2018-02-07T15:21:24.979Z,0.30
2018-02-07T15:23:53.100Z,0.20
2018-02-07T15:26:21.216Z,0.10
2018-02-07T15:28:49.358Z,0.40
2018-02-07T15:31:17.716Z,0.60
2018-02-07T15:33:45.920Z,0.50
2018-02-07T15:36:14.812Z,0.20
2018-02-07T15:38:43.942Z,0.20
2018-02-07T15:41:12.061Z,0.20
2018-02-07T15:43:40.984Z,0.40
2018-02-07T15:46:09.380Z,0.40
2018-02-07T15:48:37.514Z,0.50
2018-02-07T15:51:06.408Z,0.40
2018-02-07T15:53:34.581Z,0.30
2018-02-07T15:56:02.716Z,0.30
2018-02-07T15:58:30.862Z,0.30
2018-02-07T16:00:58.992Z,0.20
2018-02-07T16:03:27.169Z,0.10
2018-02-07T16:05:56.133Z,0.00
2018-02-07T16:08:24.298Z,0.00
2018-02-07T16:10:54.018Z,-0.10
2018-02-07T16:13:22.899Z,-0.10
2018-02-07T16:15:51.033Z,0.00
2018-02-07T16:18:19.210Z,0.00
2018-02-07T16:20:47.430Z,0.10
2018-02-07T16:23:16.330Z,0.10
2018-02-07T16:25:45.246Z,0.00
2018-02-07T16:28:13.623Z,0.00
2018-02-07T16:30:41.748Z,-0.10
2018-02-07T16:33:09.885Z,-0.20
2018-02-07T16:35:38.030Z,-0.10
2018-02-07T16:38:06.155Z,-0.10
2018-02-07T16:40:35.065Z,0.00
2018-02-07T16:43:03.192Z,-0.10
2018-02-07T16:45:31.320Z,-0.10
2018-02-07T16:47:59.456Z,-0.20
2018-02-07T16:50:28.366Z,-0.20
2018-02-07T16:52:56.512Z,-0.20
2018-02-07T16:55:24.653Z,-0.30
2018-02-07T16:57:52.773Z,-0.20
2018-02-07T17:00:21.042Z,-0.20
2018-02-07T17:02:49.158Z,-0.20
2018-02-07T17:05:17.309Z,-0.30
2018-02-07T17:07:45.441Z,-0.30
2018-02-07T17:10:14.305Z,-0.30
2018-02-07T17:12:42.449Z,-0.30
2018-02-07T17:15:10.712Z,-0.30
2018-02-07T17:17:38.828Z,-0.40
2018-02-07T17:20:06.958Z,-0.50
2018-02-07T17:22:35.104Z,-0.50
2018-02-07T17:25:04.008Z,-0.60
2018-02-07T17:27:32.139Z,-0.60
2018-02-07T17:30:00.330Z,-0.50
2018-02-07T17:32:28.641Z,-0.60
2018-02-07T17:34:56.771Z,-0.50
2018-02-07T17:37:24.907Z,-0.50
2018-02-07T17:39:53.032Z,-0.60
2018-02-07T17:42:21.173Z,-0.70
2018-02-07T17:44:49.392Z,-0.70
2018-02-07T17:47:17.573Z,-0.80
2018-02-07T17:49:45.700Z,-0.90
2018-02-07T17:52:13.840Z,-0.90
2018-02-07T17:54:41.959Z,-0.90
2018-02-07T17:57:10.113Z,-0.90
2018-02-07T17:59:38.296Z,-1.00
2018-02-07T18:02:06.453Z,-1.00
2018-02-07T18:04:34.567Z,-1.00
2018-02-07T18:07:02.704Z,-0.90
2018-02-07T18:09:30.844Z,-1.00
2018-02-07T18:12:00.601Z,-1.10
2018-02-07T18:14:29.509Z,-1.00
2018-02-07T18:16:57.695Z,-1.00
2018-02-07T18:19:25.815Z,-1.00
2018-02-07T18:21:53.953Z,-1.00
2018-02-07T18:24:22.845Z,-1.10
2018-02-07T18:26:51.021Z,-1.10
2018-02-07T18:29:19.237Z,-1.10
2018-02-07T18:31:48.121Z,-1.20
2018-02-07T18:34:17.119Z,-1.20
2018-02-07T18:36:45.246Z,-1.20
2018-02-07T18:39:13.412Z,-1.20
2018-02-07T18:41:41.533Z,-1.30
2018-02-07T18:44:09.753Z,-1.30
2018-02-07T18:46:38.661Z,-1.40
2018-02-07T18:49:06.804Z,-1.40
2018-02-07T18:51:34.945Z,-1.40
2018-02-07T18:54:03.144Z,-1.40
2018-02-07T18:56:31.330Z,-1.40
2018-02-07T18:58:59.460Z,-1.40
2018-02-07T19:01:27.598Z,-1.40
2018-02-07T19:03:55.752Z,-1.40
2018-02-07T19:06:23.909Z,-1.40
2018-02-07T19:08:52.048Z,-1.40
2018-02-07T19:11:20.196Z,-1.40
2018-02-07T19:13:49.091Z,-1.40
2018-02-07T19:16:18.014Z,-1.40
2018-02-07T19:18:46.164Z,-1.40
2018-02-07T19:21:15.105Z,-1.30
2018-02-07T19:23:43.235Z,-1.30
2018-02-07T19:26:11.402Z,-1.30
2018-02-07T19:28:40.288Z,-1.10
2018-02-07T19:31:09.230Z,-1.20
2018-02-07T19:33:37.924Z,-1.30
2018-02-07T19:36:06.457Z,-1.30
2018-02-07T19:38:35.700Z,-1.30
2018-02-07T19:41:04.593Z,-1.20
2018-02-07T19:43:33.285Z,-1.20
2018-02-07T19:46:02.535Z,-1.40
2018-02-07T19:48:30.648Z,-1.40
2018-02-07T19:51:00.550Z,-1.20
2018-02-07T19:53:29.594Z,-1.20
2018-02-07T19:55:58.734Z,-1.20
2018-02-07T19:58:27.931Z,-1.40
2018-02-07T20:00:56.236Z,-1.40
2018-02-07T20:03:26.423Z,-1.50
2018-02-07T20:05:54.861Z,-1.50
2018-02-07T20:08:24.356Z,-1.30
2018-02-07T20:10:53.480Z,-1.20
2018-02-07T20:13:22.232Z,-1.10
2018-02-07T20:15:53.307Z,-1.50
2018-02-07T20:18:22.642Z,-1.50
2018-02-07T20:20:50.772Z,-1.30
2018-02-07T20:23:19.491Z,-1.30
2018-02-07T20:25:47.628Z,-1.50
2018-02-07T20:28:15.778Z,-1.40
2018-02-07T20:30:44.018Z,-1.40
2018-02-07T20:33:12.138Z,-1.30
2018-02-07T20:35:40.351Z,-1.20
2018-02-07T20:38:08.485Z,-1.10
2018-02-07T20:40:36.636Z,-1.30
2018-02-07T20:43:05.530Z,-1.40
2018-02-07T20:45:33.721Z,-1.40
2018-02-07T20:48:01.848Z,-1.40
2018-02-07T20:50:30.748Z,-1.30
2018-02-07T20:52:59.657Z,-1.30
2018-02-07T20:55:27.798Z,-1.40
2018-02-07T20:57:56.700Z,-1.30
2018-02-07T21:00:24.972Z,-1.30
2018-02-07T21:02:53.144Z,-1.10
2018-02-07T21:05:22.859Z,-1.00
2018-02-07T21:07:51.008Z,-1.00
2018-02-07T21:10:19.135Z,-0.90
2018-02-07T21:12:47.268Z,-0.80
2018-02-07T21:15:15.406Z,-0.70
2018-02-07T21:17:43.548Z,-0.80
2018-02-07T21:20:11.663Z,-0.70
2018-02-07T21:22:40.243Z,-0.70
2018-02-07T21:25:09.140Z,-0.70
2018-02-07T21:27:38.044Z,-0.70
2018-02-07T21:30:06.175Z,-0.70
2018-02-07T21:32:34.324Z,-0.70
2018-02-07T21:35:02.456Z,-0.60
2018-02-07T21:37:30.607Z,-0.60
2018-02-07T21:39:58.745Z,-0.70
2018-02-07T21:42:26.904Z,-0.70
2018-02-07T21:44:55.065Z,-0.70
2018-02-07T21:47:23.928Z,-0.70
2018-02-07T21:49:52.840Z,-0.80
2018-02-07T21:52:20.973Z,-0.80
2018-02-07T21:54:49.137Z,-0.90
2018-02-07T21:57:17.255Z,-0.90
2018-02-07T21:59:45.488Z,-0.80
2018-02-07T22:02:13.626Z,-0.80
2018-02-07T22:04:41.766Z,-0.80
2018-02-07T22:07:10.268Z,-0.80
2018-02-07T22:09:38.396Z,-0.70
2018-02-07T22:12:07.283Z,-0.70
2018-02-07T22:14:36.188Z,-0.70
2018-02-07T22:17:04.682Z,-0.70
2018-02-07T22:19:32.808Z,-0.70
2018-02-07T22:22:00.934Z,-0.70
2018-02-07T22:24:29.087Z,-0.70
2018-02-07T22:26:57.215Z,-0.70
2018-02-07T22:29:26.283Z,-0.70
2018-02-07T22:31:54.408Z,-0.80
2018-02-07T22:34:22.587Z,-0.70
2018-02-07T22:36:51.488Z,-0.80
2018-02-07T22:39:19.612Z,-0.80
2018-02-07T22:41:47.763Z,-0.80
2018-02-07T22:44:16.653Z,-0.80
2018-02-07T22:46:44.783Z,-0.80
2018-02-07T22:49:12.916Z,-0.80
2018-02-07T22:51:41.110Z,-0.80
2018-02-07T22:54:10.000Z,-0.90
2018-02-07T22:56:38.141Z,-0.90
2018-02-07T22:59:06.264Z,-1.10
2018-02-07T23:01:34.409Z,-1.20
2018-02-07T23:04:02.565Z,-1.10
2018-02-07T23:06:30.749Z,-1.10
2018-02-07T23:08:59.051Z,-0.90
2018-02-07T23:11:27.190Z,-0.90
2018-02-07T23:13:55.325Z,-0.90
2018-02-07T23:16:23.456Z,-0.80
2018-02-07T23:18:51.616Z,-0.80
2018-02-07T23:21:20.575Z,-0.90
2018-02-07T23:23:48.718Z,-0.90
2018-02-07T23:26:16.836Z,-0.90
2018-02-07T23:28:44.994Z,-0.90
2018-02-07T23:31:13.108Z,-0.90
2018-02-07T23:33:41.249Z,-1.00
2018-02-07T23:36:09.393Z,-1.00
2018-02-07T23:38:37.537Z,-1.00
2018-02-07T23:41:05.674Z,-1.10
2018-02-07T23:43:34.576Z,-1.40
2018-02-07T23:46:02.711Z,-1.40
2018-02-07T23:48:30.848Z,-1.50
2018-02-07T23:50:58.968Z,-1.50
2018-02-07T23:53:27.111Z,-1.40
2018-02-07T23:55:55.240Z,-1.60
2018-02-07T23:58:23.380Z,-1.60
